Meath Environmental Platform

Observations for Trim Patrick St

Time AQI Temp °C Hum % Pres Pa CO μg/m³ H₂S μg/m³ NO μg/m³ NO₂ μg/m³ O₃ μg/m³ SO₂ μg/m³ PM1 μg/m³ PM2.5 μg/m³ PM10 μg/m³
Saturday 8 August 2026
18:25 3 30.3 34 69,278 0 18.67 0.68 16.71 68.35 17.27 2.86 8.19 9.01
18:24 3 30.4 35 69,284 0 20.3 0.63 18.06 81.06 18.15 2.86 8.96 9.85
18:23 3 30.4 35 69,290 0 21.61 0.63 23.2 89.63 17.87 2 7.37 8.1
18:22 3 30.4 35 69,300 0 18.12 0.62 14.6 79.55 17.77 2 7.37 8.11
18:21 3 30.5 35 69,314 0 21.52 0.59 16.57 95.6 19.16 2 7.35 8.08
18:19 3 30.6 35 69,320 0 15 0.59 13.39 69.41 18.06 2.86 8.18 9
18:18 3 30.6 35 69,310 0 23.56 0.6 18.16 88.56 19.12 2 7.38 8.12
18:16 3 30.8 34 69,304 0 16.51 0.62 20.66 73.13 17.71 2 7.42 8.16
18:15 3 30.9 34 69,316 0 20.91 0.58 18.98 87.83 18.06 2 7.42 8.16
18:14 3 31 34 69,326 0 21.7 0.6 21.09 86.5 19.37 2 7.44 8.18
18:13 3 31.1 34 69,310 0 15.28 0.57 14.06 90.59 19.07 2 7.45 8.19
18:11 3 31.2 33 69,298 0 25.56 0.6 34.7 72.21 18.85 2 7.47 8.22
18:07 3 31.7 33 69,318 0 15.1 0.66 13.75 94.92 18.8 2 8.28 9.11
18:03 3 32.1 32 69,322 0 4.82 0.75 13.19 68.13 18.79 2.86 8.38 9.21
18:00 3 32.5 32 69,339 0 5.53 0.72 13.47 87.94 19.1 2 7.58 8.34
17:59 3 32.7 31 69,379 0 5.94 0.72 14.85 90.42 19.26 2 7.62 8.38
17:58 3 32.7 32 69,375 0 0 0.7 13.15 70.08 18.61 2 7.58 8.34
17:57 3 32.9 31 69,371 0 3.72 0.66 13.09 65.39 19.39 2 7.59 8.35
17:56 3 32.9 32 69,391 0 12.92 0.66 15.02 90.98 20.29 2 7.57 8.33
17:55 3 33 32 69,387 0 14.26 0.63 15.64 104.39 19.71 2 7.57 8.32